Laida — EAVE — position and weather

sailwx.info

Track history (hours):
 
Tides and Currents Weather Stations Pressure Air Temp Water Temp Dewpoint Dewpoint Depression Visibility Wind Speed Wind Dir Waves Ship Positions

Laida

Last reported at 2014-Jul-29 05:19 UTC. Time now 2014-Jul-29 19:02 UTC.
Position N 50°50' W 000°14'.

Length 100 m; draft 6 m.

Type: Cargo ship. MMSI: 224509000.

Date/timePositionNaut miles runAvg speedWind from/ knotsBaromVisibWave heightAir tempDewpointWater temp
2014-Jul-29 05:19N 50°50' W 000°14'0 0.0
2014-Jul-29 04:29N 50°50' W 000°14'0 0.0
2014-Jul-29 03:31N 50°50' W 000°14'0 0.0
2014-Jul-29 02:19N 50°50' W 000°14'0 0.0
2014-Jul-29 01:19N 50°50' W 000°14'0 0.0
2014-Jul-29 00:33N 50°50' W 000°14'1 1.0
2014-Jul-28 23:33N 50°49' W 000°15'2 1.6
2014-Jul-28 22:33N 50°48' W 000°15'0 0.0
2014-Jul-28 21:33N 50°48' W 000°15'0 0.0
2014-Jul-28 20:30N 50°48' W 000°15'0 0.0
2014-Jul-28 18:33N 50°47' W 000°15'0 0.1
2014-Jul-28 16:30N 50°47' W 000°15'0 0.0
2014-Jul-28 15:33N 50°47' W 000°15'0 0.1
2014-Jul-28 14:33N 50°48' W 000°15'6 4.2
2014-Jul-28 13:10N 50°42' W 000°18'6 9.6
2014-Jul-28 12:33N 50°38' W 000°25'  
2014-Jul-25 04:22N 37°53' W 009°37'910.6
2014-Jul-25 03:29N 37°44' W 009°34'1011.1
2014-Jul-25 02:33N 37°33' W 009°31'6510.1
2014-Jul-24 20:04N 36°39' W 008°47'4111.0
2014-Jul-24 16:22N 36°26' W 007°59'13010.9
2014-Jul-24 04:25N 35°58' W 005°22'4 5.1
2014-Jul-24 03:34N 35°54' W 005°19'0 0.0
2014-Jul-24 02:34N 35°54' W 005°19'0 0.0
2014-Jul-24 01:34N 35°54' W 005°19'0 0.0
2014-Jul-24 00:33N 35°54' W 005°19'0 0.0
2014-Jul-23 23:34N 35°54' W 005°19'0 0.0
2014-Jul-23 22:34N 35°54' W 005°19'1 1.0
2014-Jul-23 21:34N 35°55' W 005°18'11710.4
2014-Jul-23 10:18N 36°35' W 003°02'8811.0
2014-Jul-23 02:18N 37°03' W 001°18'1012.5
2014-Jul-23 01:30N 37°10' W 001°09'1512.7
2014-Jul-23 00:18N 37°20' W 000°54'1013.1
2014-Jul-22 23:33N 37°26' W 000°45'1312.2
2014-Jul-22 22:32N 37°35' W 000°33'1312.4
2014-Jul-22 21:31N 37°45' W 000°25'1212.6
2014-Jul-22 20:33N 37°55' W 000°16'1612.4
2014-Jul-22 19:14N 38°09' W 000°05'3612.2
2014-Jul-22 16:17N 38°39' E 000°20'1212.0
2014-Jul-22 15:15N 38°50' E 000°28'5812.3
2014-Jul-22 10:33N 39°41' E 001°03'1212.4
2014-Jul-22 09:33N 39°52' E 001°11'1312.5
2014-Jul-22 08:32N 40°03' E 001°19'1212.8
2014-Jul-22 07:34N 40°14' E 001°26'1312.9
2014-Jul-22 06:33N 40°25' E 001°34'1313.1
2014-Jul-22 05:34N 40°37' E 001°42'1313.0
2014-Jul-22 04:33N 40°48' E 001°51'1312.6
2014-Jul-22 03:32N 40°60' E 001°59'22 4.1
2014-Jul-21 22:05N 41°21' E 002°09'0 0.0
2014-Jul-21 17:17N 41°21' E 002°09'0 0.0
2014-Jul-21 16:29N 41°21' E 002°09'0 0.0
2014-Jul-21 13:11N 41°21' E 002°09'0 0.0
2014-Jul-20 17:17N 41°21' E 002°09'0 0.0
2014-Jul-20 16:29N 41°21' E 002°09'0 0.0
2014-Jul-20 13:11N 41°21' E 002°09'0 0.0
2014-Jul-20 11:17N 41°21' E 002°09'0 0.0
2014-Jul-20 05:25N 41°21' E 002°09'0 0.0
2014-Jul-20 04:11N 41°21' E 002°09'0 0.0
2014-Jul-20 03:17N 41°20' E 002°09'0 0.0
2014-Jul-20 02:23N 41°21' E 002°09'0 0.0
2014-Jul-20 01:23N 41°21' E 002°09'0 0.0
2014-Jul-19 23:32N 41°21' E 002°09'0 0.0
2014-Jul-19 22:32N 41°21' E 002°09'  
Track history (hours):
 
Tides and Currents Weather Stations Pressure Air Temp Water Temp Dewpoint Dewpoint Depression Visibility Wind Speed Wind Dir Waves Ship Positions

Laida

Last reported at 2014-Jul-29 05:19 UTC. Time now 2014-Jul-29 19:02 UTC.
Position N 50°50' W 000°14'.

Length 100 m; draft 6 m.

Type: Cargo ship. MMSI: 224509000.

Date/timePositionNaut miles runAvg speedWind from/ knotsBaromVisibWave heightAir tempDewpointWater temp
2014-Jul-29 05:19N 50°50' W 000°14'0 0.0
2014-Jul-29 04:29N 50°50' W 000°14'0 0.0
2014-Jul-29 03:31N 50°50' W 000°14'0 0.0
2014-Jul-29 02:19N 50°50' W 000°14'0 0.0
2014-Jul-29 01:19N 50°50' W 000°14'0 0.0
2014-Jul-29 00:33N 50°50' W 000°14'1 1.0
2014-Jul-28 23:33N 50°49' W 000°15'2 1.6
2014-Jul-28 22:33N 50°48' W 000°15'0 0.0
2014-Jul-28 21:33N 50°48' W 000°15'0 0.0
2014-Jul-28 20:30N 50°48' W 000°15'0 0.0
2014-Jul-28 18:33N 50°47' W 000°15'0 0.1
2014-Jul-28 16:30N 50°47' W 000°15'0 0.0
2014-Jul-28 15:33N 50°47' W 000°15'0 0.1
2014-Jul-28 14:33N 50°48' W 000°15'6 4.2
2014-Jul-28 13:10N 50°42' W 000°18'6 9.6
2014-Jul-28 12:33N 50°38' W 000°25'  
2014-Jul-25 04:22N 37°53' W 009°37'910.6
2014-Jul-25 03:29N 37°44' W 009°34'1011.1
2014-Jul-25 02:33N 37°33' W 009°31'6510.1
2014-Jul-24 20:04N 36°39' W 008°47'4111.0
2014-Jul-24 16:22N 36°26' W 007°59'13010.9
2014-Jul-24 04:25N 35°58' W 005°22'4 5.1
2014-Jul-24 03:34N 35°54' W 005°19'0 0.0
2014-Jul-24 02:34N 35°54' W 005°19'0 0.0
2014-Jul-24 01:34N 35°54' W 005°19'0 0.0
2014-Jul-24 00:33N 35°54' W 005°19'0 0.0
2014-Jul-23 23:34N 35°54' W 005°19'0 0.0
2014-Jul-23 22:34N 35°54' W 005°19'1 1.0
2014-Jul-23 21:34N 35°55' W 005°18'11710.4
2014-Jul-23 10:18N 36°35' W 003°02'8811.0
2014-Jul-23 02:18N 37°03' W 001°18'1012.5
2014-Jul-23 01:30N 37°10' W 001°09'1512.7
2014-Jul-23 00:18N 37°20' W 000°54'1013.1
2014-Jul-22 23:33N 37°26' W 000°45'1312.2
2014-Jul-22 22:32N 37°35' W 000°33'1312.4
2014-Jul-22 21:31N 37°45' W 000°25'1212.6
2014-Jul-22 20:33N 37°55' W 000°16'1612.4
2014-Jul-22 19:14N 38°09' W 000°05'3612.2
2014-Jul-22 16:17N 38°39' E 000°20'1212.0
2014-Jul-22 15:15N 38°50' E 000°28'5812.3
2014-Jul-22 10:33N 39°41' E 001°03'1212.4
2014-Jul-22 09:33N 39°52' E 001°11'1312.5
2014-Jul-22 08:32N 40°03' E 001°19'1212.8
2014-Jul-22 07:34N 40°14' E 001°26'1312.9
2014-Jul-22 06:33N 40°25' E 001°34'1313.1
2014-Jul-22 05:34N 40°37' E 001°42'1313.0
2014-Jul-22 04:33N 40°48' E 001°51'1312.6
2014-Jul-22 03:32N 40°60' E 001°59'22 4.1
2014-Jul-21 22:05N 41°21' E 002°09'0 0.0
2014-Jul-21 17:17N 41°21' E 002°09'0 0.0
2014-Jul-21 16:29N 41°21' E 002°09'0 0.0
2014-Jul-21 13:11N 41°21' E 002°09'0 0.0
2014-Jul-20 17:17N 41°21' E 002°09'0 0.0
2014-Jul-20 16:29N 41°21' E 002°09'0 0.0
2014-Jul-20 13:11N 41°21' E 002°09'0 0.0
2014-Jul-20 11:17N 41°21' E 002°09'0 0.0
2014-Jul-20 05:25N 41°21' E 002°09'0 0.0
2014-Jul-20 04:11N 41°21' E 002°09'0 0.0
2014-Jul-20 03:17N 41°20' E 002°09'0 0.0
2014-Jul-20 02:23N 41°21' E 002°09'0 0.0
2014-Jul-20 01:23N 41°21' E 002°09'0 0.0
2014-Jul-19 23:32N 41°21' E 002°09'0 0.0
2014-Jul-19 22:32N 41°21' E 002°09'  

Dump ship's entire track history